• Join FlightAware (Why Join?)
  • Login
  • US Flag 
12:34PM EDT


 

Airport Tracker/Info


-or-


 

Live Flight TrackerFlight Track Log ✈ SWA208 ✈ 24-Jul-2013 ✈ KPHX - KSFO

Flight Track Log - Related Links

Times and Time Zones

All times are in EDT time to prevent confusion due to time zone crossing. See the SWA208 flight status page for this flight to view local times or setup timezone preferences in your user account.

Time Position Orientation Groundspeed Altitude Reporting Facility
EDT Latitude Longitude Course Direction KTS MPH feet Rate Location/Type
07:37PM 33.4333 -112.0333 250° West 163 188 2,000  Level Phoenix TRACON
07:39PM 33.4014 -112.1378 250° West 232 267 4,200 1,800 Climbing Albuquerque Center
07:40PM 33.3808 -112.2247 254° West 265 305 6,700 2,460 Climbing Albuquerque Center
07:41PM 33.3925 -112.3183 279° West 282 325 9,300 2,580 Climbing Albuquerque Center
07:42PM 33.4050 -112.4206 278° West 308 354 12,000 2,820 Climbing Albuquerque Center
07:43PM 33.4175 -112.5264 278° West 320 368 15,100 3,120 Climbing Albuquerque Center
07:44PM 33.4325 -112.6506 278° West 330 380 18,500 2,940 Climbing Albuquerque Center
07:45PM 33.4469 -112.7656 279° West 344 396 21,200 2,460 Climbing Albuquerque Center
07:46PM 33.4639 -112.8842 280° West 357 411 23,600 2,220 Climbing Albuquerque Center
07:47PM 33.4881 -113.0039 284° West 366 421 25,800 1,380 Climbing Albuquerque Center
07:48PM 33.5142 -113.1361 283° West 401 461 26,500 1,140 Climbing Albuquerque Center
07:49PM 33.5403 -113.2778 283° West 431 496 28,200 1,560 Climbing Albuquerque Center
07:50PM 33.5681 -113.4250 283° West 447 514 29,700 1,620 Climbing Albuquerque Center
07:51PM 33.6019 -113.6056 283° West 461 531 31,600 1,860 Climbing Albuquerque Center
07:52PM 33.6281 -113.7444 283° West 468 539 33,600 2,040 Climbing Albuquerque Center
07:53PM 33.6542 -113.8908 282° West 456 525 35,800 1,980 Climbing Albuquerque Center
07:54PM 33.6806 -114.0314 283° West 440 506 37,700 1,800 Climbing Albuquerque Center
07:55PM 33.7108 -114.1978 282° West 428 493 39,500 960 Climbing Albuquerque Center
07:56PM 33.7394 -114.3508 283° West 421 484 40,000 180 Climbing Los Angeles Center
07:57PM 33.7633 -114.4881 282° West 421 484 40,000  Level Los Angeles Center
07:58PM 33.7794 -114.6256 278° West 418 481 40,000  Level Los Angeles Center
07:59PM 33.7881 -114.7906 274° West 414 476 40,000  Level Los Angeles Center
08:00PM 33.7967 -114.9289 274° West 416 479 40,000  Level Los Angeles Center
08:01PM 33.8033 -115.0644 273° West 410 472 40,000  Level Los Angeles Center
08:02PM 33.8111 -115.2033 274° West 416 479 40,000  Level Los Angeles Center
08:03PM 33.8183 -115.3400 274° West 412 474 40,000  Level Los Angeles Center
08:05PM 33.8394 -115.5314 278° West 417 480 40,000  Level Los Angeles Center
08:06PM 33.8619 -115.6689 281° West 421 484 40,000  Level Los Angeles Center
08:07PM 33.8889 -115.8339 281° West 422 486 40,000  Level Los Angeles Center
08:08PM 33.9231 -115.9647 288° West 415 478 40,000  Level Los Angeles Center
08:09PM 33.9694 -116.0956 293° West 423 487 40,000  Level Los Angeles Center
08:10PM 34.0328 -116.2806 292° West 427 491 40,000  Level Los Angeles Center
08:11PM 34.0781 -116.4125 293° West 427 491 40,000  Level Los Angeles Center
08:12PM 34.1233 -116.5436 293° West 426 490 40,000  Level Los Angeles Center
08:13PM 34.1667 -116.6692 293° West 428 493 40,000  Level Los Angeles Center
08:14PM 34.2200 -116.8275 292° West 426 490 40,000  Level Los Angeles Center
08:15PM 34.2650 -116.9594 292° West 425 489 40,000  Level Los Angeles Center
08:16PM 34.3103 -117.0922 292° West 425 489 40,000  Level Los Angeles Center
08:18PM 34.3525 -117.2192 292° West 423 487 40,000  Level Los Angeles Center
08:19PM 34.4069 -117.3836 292° West 423 487 40,000  Level Los Angeles Center
08:20PM 34.4519 -117.5183 292° West 423 487 40,000  Level Los Angeles Center
08:21PM 34.5031 -117.6767 291° West 425 489 40,000  Level Los Angeles Center
08:22PM 34.5475 -117.8119 292° West 429 494 40,000  Level Los Angeles Center
08:23PM 34.5908 -117.9450 292° West 428 493 40,000  Level Los Angeles Center
08:24PM 34.6561 -118.1014 297° West 441 507 40,000  Level Los Angeles Center
08:25PM 34.7350 -118.2150 310° West 438 504 40,000  Level Los Angeles Center
08:26PM 34.8142 -118.3289 310° West 438 504 40,000  Level Los Angeles Center
08:27PM 34.8919 -118.4439 310° West 439 505 40,000  Level Los Angeles Center
08:28PM 34.9833 -118.5753 310° West 441 507 40,000  Level Los Angeles Center
08:29PM 35.0481 -118.7008 302° West 439 505 40,000  Level Los Angeles Center
08:30PM 35.0992 -118.8342 295° West 434 499 40,000  Level Los Angeles Center
08:32PM 35.1536 -118.9664 297° West 437 503 40,000  Level Los Angeles Center
08:33PM 35.2294 -119.1528 297° West 436 502 40,000  Level Los Angeles Center
08:34PM 35.2831 -119.2881 296° West 439 505 40,000  Level Los Angeles Center
08:35PM 35.3367 -119.4219 296° West 438 504 40,000  Level Los Angeles Center
08:36PM 35.3889 -119.5556 296° West 437 503 40,000  Level Los Angeles Center
08:37PM 35.4408 -119.6894 295° West 436 502 40,000  Level Los Angeles Center
08:38PM 35.5019 -119.8475 295° West 431 496 40,000  Level Los Angeles Center
08:39PM 35.5550 -119.9789 296° West 432 497 40,000  Level Los Angeles Center
08:40PM 35.6064 -120.1136 295° West 439 505 40,000  Level Los Angeles Center
08:41PM 35.6583 -120.2481 295° West 440 506 40,000  Level Los Angeles Center
08:42PM 35.7208 -120.4122 295° West 447 514 40,000 -60 Level Los Angeles Center
08:43PM 35.7786 -120.5092 306° West 441 507 39,900 -1,260 Descending Los Angeles Center
08:44PM 35.8761 -120.6508 310° West 454 522 37,400 -1,680 Descending Los Angeles Center
08:45PM 35.9569 -120.7744 309° West 463 533 36,500 -840 Descending Los Angeles Center
08:46PM 36.0217 -120.8686 310° West 456 525 35,700 -1,020 Descending Los Angeles Center
08:47PM 36.1372 -121.0383 310° West 463 533 34,400 -1,080 Descending Los Angeles Center
08:49PM 36.2331 -121.1872 309° West 464 534 33,200 -1,500 Descending Oakland Center
08:50PM 36.3319 -121.3331 310° West 458 527 30,800 -3,000 Descending Oakland Center
08:51PM 36.4122 -121.4556 309° West 459 528 27,100 -3,180 Descending Oakland Center
08:52PM 36.4919 -121.5786 309° West 458 527 24,400 -3,540 Descending Oakland Center
08:52PM 36.5667 -121.6833 312° West 465 535 20,600 -2,520 Descending Northern Cal TRACON
08:53PM 36.6333 -121.8000 305° West 508 585 19,800 -1,680 Descending Northern Cal TRACON
08:54PM 36.7167 -121.9167 312° West 405 466 17,300 -1,740 Descending Northern Cal TRACON
08:55PM 36.8000 -121.9833 327° Northwest 361 415 16,400 -1,200 Descending Northern Cal TRACON
08:56PM 36.8833 -122.0000 351° North 332 382 15,000 -1,500 Descending Northern Cal TRACON
08:57PM 36.9667 -122.0167 351° North 321 369 13,500 -1,620 Descending Northern Cal TRACON
08:58PM 37.0500 -122.0500 342° North 316 364 11,900 -1,620 Descending Northern Cal TRACON
08:59PM 37.1333 -122.0667 351° North 311 358 10,400 -1,440 Descending Northern Cal TRACON
09:00PM 37.1833 -122.1500 307° West 294 338 9,100 -1,080 Descending Northern Cal TRACON
09:01PM 37.2333 -122.2167 313° West 270 311 8,300 -600 Descending Northern Cal TRACON
09:02PM 37.2833 -122.2833 313° West 253 291 8,000 -300 Descending Northern Cal TRACON
09:03PM 37.3075 -122.2708 22° Northeast 242 278 7,900 -960 Descending Oakland Center
09:04PM 37.3600 -122.1925 50° Northeast 244 281 6,500 -1,200 Descending Oakland Center
09:05PM 37.4247 -122.1703 15° North 242 278 5,500 -840 Descending Oakland Center
09:06PM 37.4881 -122.1656 North 234 269 4,900 -840 Descending Oakland Center
09:07PM 37.5347 -122.1933 335° Northwest 212 244 3,900 -1,200 Descending Oakland Center
09:08PM 37.5667 -122.2667 299° West 160 184 2,200 -1,260 Descending Northern Cal TRACON
09:09PM 37.6000 -122.3167 310° West 140 161 1,000 -960 Descending Northern Cal TRACON
09:10PM 37.6000 -122.3500 270° West 136 157 300 -420 Descending Northern Cal TRACON
09:11PM 37.6167 -122.3775 307° West 150 173 300  Level Oakland Center
09:13PM 37.6167 -122.3667 322° Northwest  Level FlightAware Approximate